Time;durP1;ratioP1;P1;durP2;ratioP2;P2;SDS_P1;SDS_P2;PMS_P1;PMS_P2;Temp;Humidity;BMP_temperature;BMP_pressure;BME280_temperature;BME280_humidity;BME280_pressure;Samples;Min_cycle;Max_cycle;Signal;HPM_P1;HPM_P2
2023/09/07 00:00:10;;;;;;;;;9.00;9.00;;;;;;;;5079259;28;45387;-76
2023/09/07 00:02:35;;;;;;;;;10.33;10.33;;;;;;;;5078914;28;45348;-77
2023/09/07 00:05:00;;;;;;;;;8.67;8.67;;;;;;;;5079043;28;45294;-77
2023/09/07 00:07:26;;;;;;;;;11.00;11.00;;;;;;;;5079631;28;45350;-77
2023/09/07 00:09:51;;;;;;;;;9.00;9.00;;;;;;;;5061265;28;46004;-77
2023/09/07 00:12:16;;;;;;;;;11.00;11.00;;;;;;;;5079412;28;45335;-76
2023/09/07 00:14:41;;;;;;;;;9.00;9.00;;;;;;;;5079527;28;45315;-77
2023/09/07 00:17:07;;;;;;;;;12.00;11.00;;;;;;;;5079434;28;45248;-77
2023/09/07 00:19:33;;;;;;;;;10.67;10.33;;;;;;;;5079423;28;45233;-77
2023/09/07 00:21:58;;;;;;;;;8.67;8.67;;;;;;;;5079146;28;45267;-77
2023/09/07 00:24:24;;;;;;;;;11.00;8.67;;;;;;;;5079292;28;45214;-77
2023/09/07 00:26:49;;;;;;;;;11.67;9.67;;;;;;;;5079436;28;45279;-77
2023/09/07 00:29:17;;;;;;;;;9.00;8.00;;;;;;;;5068955;27;45872;-77
2023/09/07 00:31:42;;;;;;;;;9.67;7.00;;;;;;;;5099469;27;46142;-77
2023/09/07 00:34:07;;;;;;;;;4.67;4.67;;;;;;;;5083049;27;45984;-77
2023/09/07 00:36:32;;;;;;;;;11.00;10.33;;;;;;;;5103256;27;45555;-77
2023/09/07 00:38:58;;;;;;;;;11.67;10.67;;;;;;;;5084718;27;45561;-77
2023/09/07 00:41:23;;;;;;;;;9.00;8.67;;;;;;;;5103009;27;46696;-77
2023/09/07 00:43:48;;;;;;;;;10.33;10.33;;;;;;;;5102677;27;45287;-77
2023/09/07 00:46:14;;;;;;;;;9.33;8.67;;;;;;;;5084594;27;45351;-77
2023/09/07 00:48:39;;;;;;;;;10.33;9.33;;;;;;;;5102743;27;45541;-77
2023/09/07 00:51:05;;;;;;;;;11.00;11.00;;;;;;;;5102678;27;45314;-77
2023/09/07 00:53:30;;;;;;;;;10.33;10.33;;;;;;;;5084475;27;45854;-76
2023/09/07 00:55:56;;;;;;;;;9.67;8.33;;;;;;;;5084318;27;45355;-76
2023/09/07 00:58:21;;;;;;;;;11.33;11.00;;;;;;;;5102852;27;45693;-76
2023/09/07 01:00:47;;;;;;;;;11.00;11.00;;;;;;;;5084143;27;48206;-77
2023/09/07 01:03:12;;;;;;;;;14.33;12.67;;;;;;;;5083967;27;46305;-77
2023/09/07 01:05:47;;;;;;;;;9.33;9.33;;;;;;;;5102796;27;45339;-77
2023/09/07 01:08:23;;;;;;;;;12.67;10.00;;;;;;;;5102650;27;45258;-76
2023/09/07 01:10:48;;;;;;;;;8.00;8.00;;;;;;;;5102546;27;45266;-76
2023/09/07 01:13:13;;;;;;;;;10.67;10.67;;;;;;;;5102508;27;45137;-77
2023/09/07 01:15:38;;;;;;;;;10.33;10.33;;;;;;;;5084206;27;45324;-76
2023/09/07 01:18:04;;;;;;;;;11.00;11.00;;;;;;;;5083896;27;46474;-76
2023/09/07 01:20:30;;;;;;;;;10.33;10.33;;;;;;;;5083723;27;46923;-76
2023/09/07 01:22:55;;;;;;;;;12.67;12.33;;;;;;;;5102383;27;45362;-77
2023/09/07 01:25:21;;;;;;;;;10.67;10.67;;;;;;;;5102509;27;45401;-77
2023/09/07 01:27:47;;;;;;;;;9.33;9.00;;;;;;;;5102336;27;45410;-77
2023/09/07 01:30:13;;;;;;;;;11.00;10.00;;;;;;;;5085623;27;46071;-77
2023/09/07 01:32:38;;;;;;;;;13.67;9.67;;;;;;;;5081531;28;45382;-76
2023/09/07 01:35:06;;;;;;;;;10.00;10.00;;;;;;;;5081815;28;45406;-77
2023/09/07 01:37:31;;;;;;;;;11.00;10.00;;;;;;;;5063391;28;46054;-77
2023/09/07 01:39:56;;;;;;;;;11.00;10.00;;;;;;;;5081479;28;45351;-77
2023/09/07 01:42:21;;;;;;;;;13.67;12.00;;;;;;;;5081245;28;45304;-77
2023/09/07 01:44:47;;;;;;;;;12.67;11.67;;;;;;;;5063109;28;45348;-77
2023/09/07 01:47:12;;;;;;;;;9.67;9.67;;;;;;;;5081406;28;45326;-77
2023/09/07 01:49:37;;;;;;;;;11.67;11.33;;;;;;;;5081472;28;45451;-77
2023/09/07 01:52:03;;;;;;;;;9.00;9.00;;;;;;;;5063242;28;45343;-76
2023/09/07 01:54:28;;;;;;;;;11.00;10.67;;;;;;;;5081607;28;45153;-77
2023/09/07 01:56:53;;;;;;;;;9.33;9.33;;;;;;;;5081314;28;45255;-77
2023/09/07 01:59:18;;;;;;;;;12.33;11.33;;;;;;;;5081281;28;45343;-77
2023/09/07 02:01:44;;;;;;;;;9.33;9.33;;;;;;;;5081184;28;45398;-76
2023/09/07 02:04:09;;;;;;;;;10.33;9.00;;;;;;;;5063305;28;45284;-77
2023/09/07 02:06:34;;;;;;;;;10.67;10.00;;;;;;;;5081284;28;45603;-77
2023/09/07 02:08:59;;;;;;;;;13.67;12.00;;;;;;;;5081149;28;45535;-76
2023/09/07 02:11:25;;;;;;;;;11.67;11.67;;;;;;;;5081396;28;45264;-76
2023/09/07 02:13:50;;;;;;;;;9.00;8.67;;;;;;;;5063054;28;45563;-76
2023/09/07 02:16:15;;;;;;;;;13.00;12.33;;;;;;;;5080998;28;45449;-77
2023/09/07 02:18:43;;;;;;;;;12.00;11.00;;;;;;;;5062779;28;47331;-77
2023/09/07 02:21:09;;;;;;;;;11.00;10.00;;;;;;;;5062566;28;45513;-76
2023/09/07 02:23:35;;;;;;;;;10.33;10.33;;;;;;;;5081115;28;45260;-76
2023/09/07 02:26:00;;;;;;;;;14.33;13.00;;;;;;;;5080952;28;45272;-77
2023/09/07 02:28:26;;;;;;;;;12.00;10.00;;;;;;;;5063795;27;48153;-77
2023/09/07 02:30:51;;;;;;;;;14.67;13.33;;;;;;;;5082853;27;45350;-76
2023/09/07 02:33:17;;;;;;;;;12.33;11.67;;;;;;;;5101294;27;45366;-76
2023/09/07 02:35:42;;;;;;;;;10.00;10.00;;;;;;;;5082773;27;46970;-76
2023/09/07 02:38:07;;;;;;;;;11.00;11.00;;;;;;;;5101159;27;45330;-77
2023/09/07 02:40:32;;;;;;;;;10.67;10.67;;;;;;;;5101265;27;45329;-76
2023/09/07 02:42:57;;;;;;;;;11.67;10.67;;;;;;;;5101124;27;45208;-77
2023/09/07 02:45:23;;;;;;;;;9.67;9.33;;;;;;;;5082724;27;46975;-76
2023/09/07 02:47:50;;;;;;;;;16.00;11.67;;;;;;;;5100914;27;45198;-77
2023/09/07 02:50:17;;;;;;;;;11.67;11.67;;;;;;;;5082582;27;45799;-76
2023/09/07 02:52:42;;;;;;;;;10.67;10.67;;;;;;;;5101175;27;45373;-76
2023/09/07 02:55:08;;;;;;;;;10.00;10.00;;;;;;;;5100805;27;45517;-76
2023/09/07 02:57:34;;;;;;;;;11.00;11.00;;;;;;;;5081546;27;47230;-77
2023/09/07 02:59:59;;;;;;;;;10.00;9.33;;;;;;;;5100920;27;45352;-76
2023/09/07 03:02:24;;;;;;;;;11.67;11.67;;;;;;;;5100796;27;45472;-77
2023/09/07 03:04:53;;;;;;;;;12.67;11.33;;;;;;;;5100831;27;45549;-77
2023/09/07 03:07:19;;;;;;;;;12.00;12.00;;;;;;;;5082129;27;48135;-77
2023/09/07 03:09:44;;;;;;;;;13.00;11.67;;;;;;;;5100801;27;45279;-76
2023/09/07 03:12:09;;;;;;;;;12.00;11.00;;;;;;;;5100900;27;45393;-76
2023/09/07 03:14:34;;;;;;;;;13.67;13.67;;;;;;;;5100663;27;45579;-76
2023/09/07 03:17:00;;;;;;;;;12.67;12.67;;;;;;;;5100370;27;46087;-76
2023/09/07 03:19:25;;;;;;;;;12.33;12.00;;;;;;;;5100591;27;45345;-76
2023/09/07 03:21:50;;;;;;;;;11.00;11.00;;;;;;;;5082071;27;45296;-76
2023/09/07 03:24:16;;;;;;;;;13.67;12.00;;;;;;;;5100583;27;45748;-76
2023/09/07 03:26:41;;;;;;;;;12.00;12.00;;;;;;;;5100428;27;45919;-76
2023/09/07 03:29:06;;;;;;;;;12.33;12.33;;;;;;;;5093333;27;45293;-76
2023/09/07 03:31:31;;;;;;;;;11.67;11.67;;;;;;;;5080015;28;45283;-76
2023/09/07 03:33:56;;;;;;;;;12.00;11.67;;;;;;;;5079929;28;45318;-76
2023/09/07 03:36:21;;;;;;;;;12.00;12.00;;;;;;;;5079658;28;46290;-77
2023/09/07 03:38:47;;;;;;;;;15.00;12.33;;;;;;;;5079762;28;45432;-76
2023/09/07 03:41:12;;;;;;;;;14.00;14.00;;;;;;;;5061407;28;45802;-76
2023/09/07 03:43:37;;;;;;;;;15.00;13.67;;;;;;;;5079473;28;45623;-76
2023/09/07 03:46:02;;;;;;;;;13.00;11.67;;;;;;;;5061418;28;47604;-77
2023/09/07 03:48:27;;;;;;;;;14.00;13.67;;;;;;;;5079670;28;45426;-77
2023/09/07 03:50:53;;;;;;;;;14.00;13.33;;;;;;;;5079762;28;45484;-77
2023/09/07 03:53:18;;;;;;;;;11.67;11.67;;;;;;;;5079702;28;45520;-76
2023/09/07 03:55:44;;;;;;;;;15.00;13.00;;;;;;;;5079651;28;45358;-77
2023/09/07 03:58:10;;;;;;;;;12.33;12.00;;;;;;;;5061575;28;45310;-77
2023/09/07 04:00:38;;;;;;;;;16.00;12.67;;;;;;;;5079867;28;45375;-77
2023/09/07 04:03:03;;;;;;;;;12.00;12.00;;;;;;;;5078923;28;45299;-77
2023/09/07 04:05:28;;;;;;;;;15.67;14.67;;;;;;;;5060708;28;48360;-77
2023/09/07 04:07:54;;;;;;;;;13.33;13.33;;;;;;;;5078757;28;45437;-77
2023/09/07 04:10:19;;;;;;;;;12.67;12.67;;;;;;;;5082867;28;45344;-77
2023/09/07 04:12:45;;;;;;;;;14.67;14.67;;;;;;;;5064553;28;46052;-76
2023/09/07 04:15:10;;;;;;;;;13.00;12.00;;;;;;;;5082964;28;46716;-76
2023/09/07 04:17:40;;;;;;;;;16.67;15.67;;;;;;;;5082740;28;45316;-77
2023/09/07 04:20:06;;;;;;;;;16.00;14.00;;;;;;;;5083191;28;45342;-76
2023/09/07 04:22:31;;;;;;;;;11.67;11.33;;;;;;;;5064307;28;45615;-76
2023/09/07 04:24:56;;;;;;;;;12.67;12.67;;;;;;;;5064523;28;48277;-76
2023/09/07 04:27:21;;;;;;;;;10.67;10.67;;;;;;;;5082855;28;45291;-76
2023/09/07 04:29:47;;;;;;;;;15.33;15.00;;;;;;;;5095573;27;45303;-76
2023/09/07 04:32:12;;;;;;;;;12.67;12.67;;;;;;;;5103158;27;45323;-76
2023/09/07 04:34:37;;;;;;;;;14.33;14.33;;;;;;;;5084887;27;47274;-76
2023/09/07 04:37:02;;;;;;;;;13.67;13.00;;;;;;;;5097048;27;45197;-76
2023/09/07 04:39:27;;;;;;;;;13.00;12.33;;;;;;;;5064456;28;45304;-77
2023/09/07 04:41:52;;;;;;;;;17.33;16.00;;;;;;;;5082405;28;45229;-77
2023/09/07 04:44:18;;;;;;;;;17.00;16.67;;;;;;;;5082058;28;45282;-76
2023/09/07 04:46:43;;;;;;;;;28.00;25.67;;;;;;;;5064057;28;45253;-76
2023/09/07 04:49:08;;;;;;;;;25.67;24.67;;;;;;;;5082697;28;45264;-76
2023/09/07 04:51:33;;;;;;;;;24.67;23.00;;;;;;;;5064165;28;45821;-76
2023/09/07 04:53:58;;;;;;;;;20.33;20.00;;;;;;;;5082421;28;45337;-76
2023/09/07 04:56:25;;;;;;;;;20.00;19.67;;;;;;;;5063906;28;45788;-76
2023/09/07 04:58:50;;;;;;;;;28.00;27.00;;;;;;;;5082541;28;45417;-76
2023/09/07 05:01:16;;;;;;;;;22.33;22.33;;;;;;;;5063698;28;47308;-76
2023/09/07 05:03:41;;;;;;;;;23.67;22.00;;;;;;;;5082360;28;45448;-76
2023/09/07 05:06:06;;;;;;;;;21.33;20.33;;;;;;;;5063925;28;45683;-76
2023/09/07 05:08:31;;;;;;;;;20.00;20.00;;;;;;;;5082431;28;45291;-76
2023/09/07 05:10:57;;;;;;;;;22.33;19.00;;;;;;;;5082108;28;45490;-76
2023/09/07 05:13:23;;;;;;;;;23.67;20.67;;;;;;;;5082113;28;45331;-76
2023/09/07 05:15:49;;;;;;;;;19.00;18.00;;;;;;;;5081919;28;45390;-76
2023/09/07 05:18:17;;;;;;;;;18.33;16.67;;;;;;;;5082111;28;45378;-76
2023/09/07 05:20:44;;;;;;;;;16.33;16.00;;;;;;;;5081278;28;45169;-76
2023/09/07 05:23:10;;;;;;;;;18.33;18.00;;;;;;;;5081708;28;45219;-76
2023/09/07 05:25:42;;;;;;;;;17.67;17.33;;;;;;;;5081953;28;45280;-76
2023/09/07 05:28:07;;;;;;;;;17.67;16.00;;;;;;;;5063800;28;45284;-76
2023/09/07 05:30:32;;;;;;;;;14.33;14.33;;;;;;;;5100648;27;45261;-76
2023/09/07 05:32:57;;;;;;;;;16.00;15.33;;;;;;;;5078830;27;47108;-78
2023/09/07 05:35:27;;;;;;;;;16.67;15.33;;;;;;;;5072030;28;45181;-78
2023/09/07 05:37:52;;;;;;;;;20.00;20.00;;;;;;;;5053298;28;45534;-77
2023/09/07 05:40:18;;;;;;;;;17.67;17.67;;;;;;;;5081618;28;45317;-76
2023/09/07 05:42:43;;;;;;;;;18.00;16.33;;;;;;;;5063156;28;48252;-77
2023/09/07 05:45:08;;;;;;;;;15.33;14.33;;;;;;;;5081567;28;45359;-76
2023/09/07 05:47:33;;;;;;;;;13.33;13.33;;;;;;;;5081576;28;45410;-76
2023/09/07 05:49:58;;;;;;;;;13.00;13.00;;;;;;;;5081613;28;45476;-75
2023/09/07 05:52:24;;;;;;;;;14.33;14.33;;;;;;;;5063029;28;48204;-76
2023/09/07 05:54:49;;;;;;;;;18.67;15.00;;;;;;;;5081552;28;45370;-74
2023/09/07 05:57:17;;;;;;;;;12.33;12.00;;;;;;;;5081334;28;45529;-77
2023/09/07 05:59:42;;;;;;;;;16.00;14.33;;;;;;;;5081416;28;45258;-77
2023/09/07 06:02:07;;;;;;;;;13.67;13.00;;;;;;;;5062890;28;48163;-75
2023/09/07 06:04:32;;;;;;;;;16.67;15.00;;;;;;;;5081357;28;45256;-73
2023/09/07 06:06:58;;;;;;;;;18.00;17.00;;;;;;;;5081451;28;45191;-75
2023/09/07 06:09:23;;;;;;;;;19.00;17.00;;;;;;;;5081229;28;45216;-74
2023/09/07 06:11:48;;;;;;;;;14.00;14.00;;;;;;;;5081251;28;45447;-74
2023/09/07 06:14:13;;;;;;;;;15.67;15.67;;;;;;;;5081317;28;45161;-74
2023/09/07 06:16:39;;;;;;;;;16.00;16.00;;;;;;;;5081110;28;45302;-74
2023/09/07 06:19:05;;;;;;;;;19.00;19.00;;;;;;;;5081070;28;45494;-75
2023/09/07 06:21:30;;;;;;;;;20.67;19.00;;;;;;;;5080556;28;46220;-73
2023/09/07 06:23:55;;;;;;;;;19.00;17.00;;;;;;;;5078324;28;45387;-73
2023/09/07 06:26:21;;;;;;;;;15.00;15.00;;;;;;;;5067771;28;45322;-74
2023/09/07 06:28:46;;;;;;;;;15.67;15.00;;;;;;;;5066563;27;46400;-73
2023/09/07 06:31:11;;;;;;;;;18.33;18.00;;;;;;;;5099947;27;45286;-73
2023/09/07 06:33:36;;;;;;;;;20.33;20.00;;;;;;;;5101323;27;45294;-74
2023/09/07 06:36:02;;;;;;;;;19.00;17.00;;;;;;;;5101405;27;45528;-74
2023/09/07 06:38:27;;;;;;;;;16.00;16.00;;;;;;;;5099575;27;45560;-75
2023/09/07 06:40:52;;;;;;;;;16.00;15.00;;;;;;;;5069201;28;46380;-73
2023/09/07 06:43:17;;;;;;;;;18.00;16.67;;;;;;;;5050765;28;46652;-75
2023/09/07 06:45:43;;;;;;;;;12.67;12.67;;;;;;;;5060452;28;45304;-75
2023/09/07 06:48:08;;;;;;;;;17.00;17.00;;;;;;;;5041880;28;45901;-75
2023/09/07 06:50:33;;;;;;;;;35.00;30.00;;;;;;;;5064462;28;45365;-76
2023/09/07 06:52:58;;;;;;;;;36.00;30.67;;;;;;;;5067013;28;45328;-75
2023/09/07 06:55:23;;;;;;;;;29.67;28.33;;;;;;;;5060386;28;45261;-73
2023/09/07 06:57:49;;;;;;;;;44.33;35.33;;;;;;;;5060089;28;45257;-73
2023/09/07 07:00:14;;;;;;;;;24.00;21.00;;;;;;;;5059928;28;45851;-73
2023/09/07 07:02:40;;;;;;;;;12.00;10.67;;;;;;;;5059796;28;45347;-72
2023/09/07 07:05:05;;;;;;;;;16.67;16.67;;;;;;;;5060220;28;45418;-74
2023/09/07 07:07:31;;;;;;;;;15.00;15.00;;;;;;;;5059821;28;45645;-74
2023/09/07 07:09:56;;;;;;;;;19.33;17.33;;;;;;;;5059970;28;45453;-74
2023/09/07 07:12:21;;;;;;;;;20.00;20.00;;;;;;;;5059855;28;45195;-75
2023/09/07 07:14:46;;;;;;;;;15.00;14.67;;;;;;;;5060092;28;45322;-74
2023/09/07 07:17:11;;;;;;;;;16.33;16.00;;;;;;;;5059809;28;45554;-75
2023/09/07 07:19:37;;;;;;;;;19.00;17.00;;;;;;;;5066706;28;45293;-75
2023/09/07 07:22:02;;;;;;;;;16.33;15.67;;;;;;;;5064006;27;45882;-76
2023/09/07 07:24:28;;;;;;;;;22.33;21.33;;;;;;;;5069710;28;45565;-74
2023/09/07 07:26:53;;;;;;;;;22.33;19.00;;;;;;;;5075102;27;45224;-75
2023/09/07 07:29:18;;;;;;;;;46.33;38.00;;;;;;;;5087915;27;45453;-75
2023/09/07 07:31:43;;;;;;;;;54.67;43.67;;;;;;;;5099559;27;45336;-75
2023/09/07 07:34:09;;;;;;;;;27.67;26.67;;;;;;;;5100097;27;45217;-74
2023/09/07 07:36:35;;;;;;;;;43.67;36.00;;;;;;;;5092211;27;46096;-74
2023/09/07 07:39:00;;;;;;;;;53.67;43.33;;;;;;;;5071457;27;45452;-73
2023/09/07 07:41:25;;;;;;;;;33.33;30.00;;;;;;;;5047736;28;45526;-75
2023/09/07 07:43:50;;;;;;;;;33.00;29.67;;;;;;;;5077062;27;45307;-74
2023/09/07 07:46:16;;;;;;;;;25.33;22.33;;;;;;;;5079210;28;45444;-73
2023/09/07 07:48:41;;;;;;;;;18.33;16.33;;;;;;;;5057764;28;45554;-74
2023/09/07 07:51:07;;;;;;;;;16.00;16.00;;;;;;;;5043255;28;45274;-73
2023/09/07 07:53:32;;;;;;;;;19.67;18.67;;;;;;;;5072059;27;45423;-74
2023/09/07 07:55:57;;;;;;;;;18.67;17.00;;;;;;;;5059820;28;45474;-74
2023/09/07 07:58:22;;;;;;;;;18.33;17.33;;;;;;;;5072054;27;45360;-74
2023/09/07 08:00:48;;;;;;;;;20.00;18.00;;;;;;;;5079066;28;45324;-75
2023/09/07 08:03:16;;;;;;;;;28.00;26.33;;;;;;;;5078959;27;45322;-74
2023/09/07 08:05:42;;;;;;;;;16.67;15.67;;;;;;;;5079050;28;45327;-73
2023/09/07 08:08:07;;;;;;;;;16.00;16.00;;;;;;;;5058343;28;47476;-73
2023/09/07 08:10:33;;;;;;;;;19.33;17.00;;;;;;;;5040611;28;45718;-73
2023/09/07 08:12:58;;;;;;;;;25.33;24.67;;;;;;;;5059138;28;45284;-73
2023/09/07 08:15:24;;;;;;;;;37.67;32.33;;;;;;;;5058676;28;45339;-73
2023/09/07 08:17:50;;;;;;;;;18.00;18.00;;;;;;;;5058956;28;45263;-73
2023/09/07 08:20:16;;;;;;;;;22.67;20.33;;;;;;;;5059011;28;45303;-73
2023/09/07 08:22:42;;;;;;;;;20.33;20.00;;;;;;;;5059047;28;45358;-73
2023/09/07 08:25:08;;;;;;;;;40.67;33.00;;;;;;;;5058505;28;45489;-74
2023/09/07 08:27:33;;;;;;;;;19.67;18.33;;;;;;;;5058457;28;46059;-74
2023/09/07 08:29:59;;;;;;;;;25.33;24.67;;;;;;;;5087128;27;45362;-74
2023/09/07 08:32:24;;;;;;;;;24.33;20.67;;;;;;;;5099566;27;45274;-74
2023/09/07 08:34:49;;;;;;;;;15.00;14.67;;;;;;;;5098833;27;45381;-74
2023/09/07 08:37:17;;;;;;;;;26.67;26.33;;;;;;;;5071523;27;45611;-75
2023/09/07 08:39:43;;;;;;;;;58.67;45.67;;;;;;;;5067533;28;45343;-75
2023/09/07 08:42:09;;;;;;;;;32.00;29.00;;;;;;;;5062208;28;45265;-74
2023/09/07 08:44:36;;;;;;;;;21.00;21.00;;;;;;;;5054161;28;45680;-75
2023/09/07 08:47:03;;;;;;;;;18.67;18.67;;;;;;;;5076597;28;45461;-75
2023/09/07 08:49:29;;;;;;;;;20.67;17.67;;;;;;;;5078259;27;45481;-74
2023/09/07 08:51:58;;;;;;;;;36.00;29.33;;;;;;;;5078137;28;45503;-76
2023/09/07 08:54:24;;;;;;;;;36.00;30.33;;;;;;;;5078672;28;45461;-75
2023/09/07 08:56:50;;;;;;;;;27.33;23.67;;;;;;;;5063326;28;47570;-75
2023/09/07 08:59:15;;;;;;;;;29.67;28.33;;;;;;;;5081236;28;45450;-75
2023/09/07 09:01:40;;;;;;;;;15.33;15.00;;;;;;;;5051689;28;45362;-76
2023/09/07 09:04:05;;;;;;;;;14.67;14.00;;;;;;;;5042931;28;47354;-76
2023/09/07 09:06:31;;;;;;;;;17.00;17.00;;;;;;;;5065236;28;45440;-75
2023/09/07 09:08:57;;;;;;;;;17.00;16.00;;;;;;;;5081592;28;45413;-76
2023/09/07 09:11:23;;;;;;;;;24.33;24.00;;;;;;;;5081812;28;45323;-75
2023/09/07 09:13:49;;;;;;;;;17.67;17.67;;;;;;;;5074401;28;45451;-75
2023/09/07 09:16:14;;;;;;;;;17.33;17.33;;;;;;;;5068103;28;45383;-75
2023/09/07 09:18:52;;;;;;;;;17.00;16.00;;;;;;;;5050511;28;45288;-75
2023/09/07 09:21:17;;;;;;;;;16.00;15.33;;;;;;;;5069621;27;45381;-74
2023/09/07 09:23:43;;;;;;;;;22.33;18.00;;;;;;;;5068088;28;45334;-75
2023/09/07 09:26:08;;;;;;;;;16.00;14.67;;;;;;;;5067917;27;45654;-75
2023/09/07 09:28:33;;;;;;;;;15.00;13.67;;;;;;;;5081401;27;45249;-76
2023/09/07 09:30:59;;;;;;;;;14.67;14.67;;;;;;;;5082926;27;45204;-75
2023/09/07 09:33:25;;;;;;;;;15.33;15.33;;;;;;;;5101481;27;45334;-74
2023/09/07 09:35:51;;;;;;;;;16.00;16.00;;;;;;;;5089959;27;45376;-76
2023/09/07 09:38:16;;;;;;;;;16.33;15.00;;;;;;;;5049628;28;45416;-75
2023/09/07 09:40:42;;;;;;;;;17.33;15.67;;;;;;;;5060171;28;45340;-75
2023/09/07 09:43:08;;;;;;;;;18.33;18.00;;;;;;;;5074098;28;45523;-77
2023/09/07 09:45:35;;;;;;;;;19.33;17.67;;;;;;;;5079852;28;46421;-76
2023/09/07 09:48:01;;;;;;;;;16.33;16.00;;;;;;;;5074860;28;45542;-75
2023/09/07 09:50:26;;;;;;;;;15.00;15.00;;;;;;;;5071201;28;45344;-75
2023/09/07 09:52:54;;;;;;;;;17.33;14.00;;;;;;;;5070723;28;45303;-76
2023/09/07 09:55:20;;;;;;;;;13.00;13.00;;;;;;;;5069232;28;46636;-76
2023/09/07 09:57:45;;;;;;;;;15.67;15.67;;;;;;;;5060731;28;45335;-76
2023/09/07 10:02:45;;;;;;;;;19.33;18.00;;;;;;;;5059476;28;45449;-76
2023/09/07 10:05:11;;;;;;;;;19.67;19.67;;;;;;;;5059434;28;45340;-75
2023/09/07 10:07:43;;;;;;;;;17.00;15.67;;;;;;;;5041777;28;45418;-77
2023/09/07 10:10:15;;;;;;;;;14.67;14.67;;;;;;;;5060371;28;45330;-76
2023/09/07 10:12:44;;;;;;;;;17.67;17.33;;;;;;;;5078423;28;45435;-78
2023/09/07 10:15:25;;;;;;;;;14.33;13.33;;;;;;;;5061516;28;46555;-75
2023/09/07 10:18:02;;;;;;;;;15.00;15.00;;;;;;;;5080192;28;45375;-77
2023/09/07 10:20:27;;;;;;;;;16.67;15.33;;;;;;;;5062134;28;45281;-75
2023/09/07 10:23:01;;;;;;;;;30.33;27.00;;;;;;;;5080614;28;45415;-77
2023/09/07 10:25:29;;;;;;;;;18.67;18.67;;;;;;;;5080914;28;45306;-76
2023/09/07 10:27:54;;;;;;;;;31.33;27.67;;;;;;;;5062720;28;45810;-77
2023/09/07 10:30:23;;;;;;;;;18.33;18.00;;;;;;;;5098151;27;45203;-77
2023/09/07 10:32:48;;;;;;;;;17.67;17.33;;;;;;;;5090722;27;45552;-75
2023/09/07 10:35:14;;;;;;;;;20.67;20.33;;;;;;;;5066483;28;45476;-75
2023/09/07 10:37:40;;;;;;;;;22.00;22.00;;;;;;;;5075973;28;45337;-74
2023/09/07 10:40:11;;;;;;;;;13.33;13.33;;;;;;;;5080924;28;45402;-74
2023/09/07 10:42:36;;;;;;;;;14.67;14.67;;;;;;;;5080388;28;46144;-75
2023/09/07 10:45:12;;;;;;;;;15.67;15.33;;;;;;;;5080776;28;46573;-75
2023/09/07 10:47:42;;;;;;;;;19.00;16.67;;;;;;;;5080545;28;45390;-76
2023/09/07 10:50:07;;;;;;;;;19.00;17.00;;;;;;;;5080813;28;45235;-77
2023/09/07 10:52:33;;;;;;;;;16.00;16.00;;;;;;;;5080387;28;45423;-76
2023/09/07 10:54:58;;;;;;;;;15.00;14.33;;;;;;;;5062062;28;47415;-77
2023/09/07 10:57:24;;;;;;;;;14.33;14.33;;;;;;;;5062031;28;45289;-76
2023/09/07 10:59:49;;;;;;;;;13.00;13.00;;;;;;;;5080620;28;45263;-76
2023/09/07 11:02:15;;;;;;;;;15.00;15.00;;;;;;;;5080201;28;45208;-78
2023/09/07 11:04:40;;;;;;;;;18.00;18.00;;;;;;;;5080451;28;45248;-75
2023/09/07 11:07:06;;;;;;;;;20.00;19.00;;;;;;;;5072039;28;45339;-75
2023/09/07 11:09:31;;;;;;;;;15.67;15.00;;;;;;;;5070134;28;46839;-75
2023/09/07 11:11:56;;;;;;;;;18.33;17.33;;;;;;;;5050141;28;45802;-77
2023/09/07 11:14:22;;;;;;;;;17.00;15.33;;;;;;;;5068045;28;46324;-78
2023/09/07 11:16:47;;;;;;;;;16.00;15.67;;;;;;;;5041185;28;45531;-78
2023/09/07 11:19:15;;;;;;;;;14.67;14.00;;;;;;;;5060106;28;45273;-77
2023/09/07 11:21:40;;;;;;;;;19.00;18.67;;;;;;;;5041520;28;45819;-77
2023/09/07 11:24:05;;;;;;;;;16.33;16.33;;;;;;;;5059624;28;45288;-76
2023/09/07 11:26:48;;;;;;;;;12.67;12.67;;;;;;;;5064267;28;45372;-75
2023/09/07 11:29:18;;;;;;;;;14.00;13.00;;;;;;;;5051540;28;45386;-76
2023/09/07 11:31:44;;;;;;;;;12.00;12.00;;;;;;;;5068082;27;45881;-79
2023/09/07 11:34:12;;;;;;;;;15.00;14.33;;;;;;;;5073361;28;45954;-76
2023/09/07 11:36:39;;;;;;;;;15.33;15.33;;;;;;;;5058432;28;45540;-74
2023/09/07 11:39:13;;;;;;;;;13.33;13.33;;;;;;;;5078893;27;45390;-73
2023/09/07 11:41:39;;;;;;;;;11.50;10.75;;;;;;;;5078683;28;45355;-74
2023/09/07 11:44:04;;;;;;;;;13.00;13.00;;;;;;;;5068508;27;45399;-75
2023/09/07 11:46:29;;;;;;;;;9.00;9.00;;;;;;;;5074252;27;45390;-76
2023/09/07 11:48:54;;;;;;;;;12.67;12.67;;;;;;;;5068204;27;45570;-77
2023/09/07 11:51:21;;;;;;;;;13.00;12.67;;;;;;;;5071786;27;47358;-77
2023/09/07 11:53:46;;;;;;;;;13.67;13.67;;;;;;;;5047572;28;48095;-76
2023/09/07 11:56:11;;;;;;;;;10.67;10.67;;;;;;;;5062294;28;45442;-76
2023/09/07 11:58:37;;;;;;;;;12.67;12.67;;;;;;;;5076499;27;45599;-75
2023/09/07 12:01:02;;;;;;;;;11.67;11.67;;;;;;;;5072743;28;45311;-75
2023/09/07 12:03:30;;;;;;;;;13.00;13.00;;;;;;;;5042538;28;47271;-76
2023/09/07 12:05:55;;;;;;;;;13.00;12.00;;;;;;;;5070539;28;45299;-77
2023/09/07 12:08:20;;;;;;;;;15.33;14.00;;;;;;;;5062059;27;45657;-75
2023/09/07 12:10:45;;;;;;;;;12.67;12.33;;;;;;;;5059531;28;46109;-75
2023/09/07 12:13:10;;;;;;;;;13.67;12.00;;;;;;;;5077952;28;46611;-75
2023/09/07 12:15:35;;;;;;;;;12.33;12.33;;;;;;;;5076078;28;45673;-76
2023/09/07 12:18:01;;;;;;;;;13.00;12.00;;;;;;;;5044123;28;45353;-75
2023/09/07 12:20:26;;;;;;;;;12.67;12.00;;;;;;;;5071806;28;45485;-77
2023/09/07 12:22:51;;;;;;;;;14.67;11.67;;;;;;;;5061629;28;45439;-77
2023/09/07 12:25:16;;;;;;;;;13.67;13.33;;;;;;;;5064586;28;45579;-77
2023/09/07 12:27:46;;;;;;;;;11.33;11.33;;;;;;;;5074742;28;45586;-76
2023/09/07 12:30:12;;;;;;;;;10.67;10.67;;;;;;;;5077034;27;45504;-76
2023/09/07 12:32:38;;;;;;;;;12.33;11.67;;;;;;;;5064980;28;45363;-76
2023/09/07 12:35:08;;;;;;;;;13.33;13.33;;;;;;;;5065426;28;45287;-75
2023/09/07 12:37:33;;;;;;;;;11.00;10.67;;;;;;;;5081702;28;45415;-77
2023/09/07 12:39:58;;;;;;;;;11.33;11.33;;;;;;;;5081899;28;45515;-76
2023/09/07 12:42:24;;;;;;;;;11.33;10.33;;;;;;;;5072771;28;45440;-77
2023/09/07 12:44:49;;;;;;;;;12.00;12.00;;;;;;;;5070261;28;45322;-78
2023/09/07 12:47:14;;;;;;;;;13.33;13.33;;;;;;;;5081985;28;45346;-80
2023/09/07 12:49:40;;;;;;;;;10.00;10.00;;;;;;;;5050619;28;47148;-77
2023/09/07 12:52:08;;;;;;;;;10.50;10.50;;;;;;;;5063826;28;45920;-78
2023/09/07 12:54:34;;;;;;;;;13.00;13.00;;;;;;;;5049553;28;45241;-78
2023/09/07 12:56:59;;;;;;;;;11.67;11.67;;;;;;;;5067210;28;45428;-77
2023/09/07 12:59:24;;;;;;;;;10.00;9.50;;;;;;;;5077573;28;45719;-78
2023/09/07 13:01:50;;;;;;;;;12.00;12.00;;;;;;;;5080215;28;45296;-77
2023/09/07 13:04:15;;;;;;;;;12.67;11.67;;;;;;;;5080508;27;45378;-76
2023/09/07 13:06:41;;;;;;;;;13.00;13.00;;;;;;;;5080561;28;45538;-76
2023/09/07 13:09:06;;;;;;;;;12.33;12.00;;;;;;;;5062925;28;46319;-77
2023/09/07 13:11:31;;;;;;;;;12.33;11.67;;;;;;;;5081149;28;45484;-77
2023/09/07 13:13:56;;;;;;;;;14.00;14.00;;;;;;;;5077468;27;45620;-77
2023/09/07 13:16:21;;;;;;;;;13.67;13.00;;;;;;;;5069054;28;45454;-78
2023/09/07 13:18:47;;;;;;;;;14.33;14.33;;;;;;;;5053218;28;46185;-77
2023/09/07 13:21:12;;;;;;;;;16.33;14.33;;;;;;;;5080583;28;46128;-79
2023/09/07 13:23:37;;;;;;;;;15.00;14.67;;;;;;;;5081142;27;45446;-77
2023/09/07 13:26:02;;;;;;;;;12.67;12.00;;;;;;;;5077517;28;45668;-77
2023/09/07 13:28:27;;;;;;;;;11.00;11.00;;;;;;;;5048588;27;46414;-78
2023/09/07 13:30:53;;;;;;;;;14.33;13.00;;;;;;;;5091651;27;45405;-77
2023/09/07 13:33:18;;;;;;;;;12.00;12.00;;;;;;;;5063048;27;45435;-76
2023/09/07 13:35:44;;;;;;;;;11.67;11.67;;;;;;;;5081507;28;45338;-79
2023/09/07 13:38:09;;;;;;;;;9.67;9.67;;;;;;;;5062860;27;46850;-78
2023/09/07 13:40:34;;;;;;;;;13.00;12.00;;;;;;;;5081430;28;45354;-79
2023/09/07 13:43:00;;;;;;;;;10.67;10.67;;;;;;;;5063316;28;46213;-81
2023/09/07 13:45:25;;;;;;;;;11.33;11.33;;;;;;;;5081647;27;45291;-79
2023/09/07 13:47:50;;;;;;;;;10.67;10.67;;;;;;;;5081088;28;45430;-78
2023/09/07 13:50:15;;;;;;;;;10.00;9.00;;;;;;;;5080826;27;46496;-79
2023/09/07 13:52:41;;;;;;;;;10.67;10.67;;;;;;;;5081601;28;45348;-76
2023/09/07 13:55:06;;;;;;;;;12.67;12.67;;;;;;;;5081360;27;45201;-77
2023/09/07 13:57:32;;;;;;;;;11.67;11.33;;;;;;;;5062340;28;47280;-76
2023/09/07 13:59:57;;;;;;;;;13.33;13.33;;;;;;;;5080842;27;46118;-76
2023/09/07 14:02:23;;;;;;;;;15.33;15.33;;;;;;;;5079117;28;45327;-75
2023/09/07 14:04:49;;;;;;;;;13.00;11.67;;;;;;;;5079311;27;45422;-78
2023/09/07 14:07:17;;;;;;;;;10.00;10.00;;;;;;;;5080661;28;45370;-77
2023/09/07 14:09:43;;;;;;;;;11.67;11.67;;;;;;;;5080389;27;45633;-77
2023/09/07 14:12:09;;;;;;;;;12.00;11.67;;;;;;;;5077267;27;45427;-77